createdAt,value
2022-09-15T00:01:27.119Z,4.40
2022-09-15T00:03:51.748Z,3.67
2022-09-15T00:06:16.443Z,4.55
2022-09-15T00:08:43.147Z,3.40
2022-09-15T00:11:11.077Z,4.13
2022-09-15T00:13:36.818Z,4.07
2022-09-15T00:16:01.793Z,3.80
2022-09-15T00:18:26.172Z,4.25
2022-09-15T00:20:50.262Z,4.22
2022-09-15T00:23:16.145Z,4.40
2022-09-15T00:25:45.928Z,4.43
2022-09-15T00:28:10.120Z,4.60
2022-09-15T00:30:34.357Z,5.13
2022-09-15T00:32:58.859Z,5.00
2022-09-15T00:35:22.908Z,5.57
2022-09-15T00:37:47.135Z,4.77
2022-09-15T00:40:12.067Z,4.35
2022-09-15T00:42:38.249Z,4.55
2022-09-15T00:45:04.305Z,5.37
2022-09-15T00:47:32.619Z,4.70
2022-09-15T00:50:03.288Z,5.93
2022-09-15T00:52:31.660Z,4.40
2022-09-15T00:55:01.107Z,4.40
2022-09-15T00:57:33.202Z,5.38
2022-09-15T01:00:02.398Z,5.70
2022-09-15T01:02:30.674Z,5.18
2022-09-15T01:04:59.063Z,4.75
2022-09-15T01:07:28.460Z,4.28
2022-09-15T01:09:57.145Z,4.55
2022-09-15T01:12:22.708Z,5.23
2022-09-15T01:14:47.143Z,4.27
2022-09-15T01:17:22.588Z,4.10
2022-09-15T01:20:12.172Z,4.47
2022-09-15T01:22:45.209Z,4.60
2022-09-15T01:25:12.186Z,4.00
2022-09-15T01:28:09.649Z,4.30
2022-09-15T01:30:38.795Z,4.20
2022-09-15T01:33:22.610Z,4.37
2022-09-15T01:35:58.361Z,4.97
2022-09-15T01:38:33.167Z,4.27
2022-09-15T01:41:03.189Z,5.13
2022-09-15T01:43:30.247Z,4.70
2022-09-15T01:45:55.899Z,4.50
2022-09-15T01:48:23.426Z,4.60
2022-09-15T01:50:52.157Z,5.37
2022-09-15T01:53:19.371Z,4.40
2022-09-15T01:55:51.765Z,4.78
2022-09-15T01:58:16.365Z,4.83
2022-09-15T02:00:45.117Z,4.60
2022-09-15T02:03:20.458Z,3.93
2022-09-15T02:05:48.410Z,4.43
2022-09-15T02:08:25.449Z,4.50
2022-09-15T02:10:56.076Z,4.72
2022-09-15T02:13:29.230Z,4.97
2022-09-15T02:15:57.438Z,4.93
2022-09-15T02:18:30.663Z,4.38
2022-09-15T02:21:08.927Z,4.60
2022-09-15T02:23:39.492Z,4.65
2022-09-15T02:26:07.809Z,4.50
2022-09-15T02:28:35.833Z,4.45
2022-09-15T02:31:02.339Z,4.70
2022-09-15T02:33:34.472Z,3.90
2022-09-15T02:36:00.711Z,4.00
2022-09-15T02:38:26.905Z,3.90
2022-09-15T02:40:51.070Z,4.20
2022-09-15T02:43:17.978Z,4.18
2022-09-15T02:45:42.932Z,3.95
2022-09-15T02:48:09.455Z,3.97
2022-09-15T02:50:35.040Z,3.80
2022-09-15T02:52:59.810Z,4.30
2022-09-15T02:55:25.077Z,3.92
2022-09-15T02:57:49.559Z,4.32
2022-09-15T03:00:18.835Z,4.30
2022-09-15T03:02:45.608Z,4.80
2022-09-15T03:05:11.013Z,5.40
2022-09-15T03:07:37.683Z,5.20
2022-09-15T03:10:01.852Z,4.60
2022-09-15T03:12:27.576Z,5.72
2022-09-15T03:14:52.056Z,4.90
2022-09-15T03:17:16.405Z,6.00
2022-09-15T03:19:40.734Z,6.05
2022-09-15T03:22:05.204Z,5.07
2022-09-15T03:24:31.149Z,4.65
2022-09-15T03:26:57.626Z,5.20
2022-09-15T03:29:21.966Z,5.43
2022-09-15T03:31:46.179Z,5.03
2022-09-15T03:34:10.494Z,4.60
2022-09-15T03:36:34.858Z,5.23
2022-09-15T03:39:01.845Z,4.57
2022-09-15T03:41:29.420Z,4.60
2022-09-15T03:43:53.758Z,4.90
2022-09-15T03:46:19.648Z,4.80
2022-09-15T03:48:44.100Z,5.40
2022-09-15T03:51:10.696Z,3.75
2022-09-15T03:53:36.045Z,4.50
2022-09-15T03:56:08.942Z,4.00
2022-09-15T03:58:34.597Z,4.57
2022-09-15T04:00:58.736Z,4.80
2022-09-15T04:03:23.208Z,4.30
2022-09-15T04:05:47.566Z,4.05
2022-09-15T04:08:14.742Z,3.60
2022-09-15T04:10:39.750Z,3.95
2022-09-15T04:13:04.002Z,3.53
2022-09-15T04:15:29.557Z,4.17
2022-09-15T04:17:54.059Z,4.10
2022-09-15T04:20:18.758Z,3.50
2022-09-15T04:22:43.069Z,4.10
2022-09-15T04:25:09.421Z,4.05
2022-09-15T04:27:36.470Z,3.60
2022-09-15T04:30:00.660Z,3.60
2022-09-15T04:32:26.277Z,3.20
2022-09-15T04:34:50.558Z,3.05
2022-09-15T04:37:14.841Z,3.38
2022-09-15T04:39:39.101Z,3.38
2022-09-15T04:42:06.015Z,3.28
2022-09-15T04:44:30.182Z,3.67
2022-09-15T04:46:54.555Z,5.53
2022-09-15T04:49:20.580Z,5.35
2022-09-15T04:51:44.894Z,4.97
2022-09-15T04:54:09.215Z,4.80
2022-09-15T04:56:33.860Z,4.43
2022-09-15T04:59:03.867Z,4.03
2022-09-15T05:01:30.351Z,4.50
2022-09-15T05:04:14.605Z,3.45
2022-09-15T05:06:40.516Z,4.72
2022-09-15T05:09:10.301Z,4.13
2022-09-15T05:11:34.872Z,4.18
2022-09-15T05:13:58.881Z,5.60
2022-09-15T05:16:25.114Z,5.90
2022-09-15T05:18:51.090Z,6.47
2022-09-15T05:21:17.337Z,6.93
2022-09-15T05:23:43.880Z,6.28
2022-09-15T05:26:11.043Z,5.78
2022-09-15T05:28:38.368Z,6.70
2022-09-15T05:31:02.817Z,6.53
2022-09-15T05:33:27.031Z,6.03
2022-09-15T05:35:52.234Z,5.55
2022-09-15T05:38:16.593Z,4.20
2022-09-15T05:40:42.303Z,4.20
2022-09-15T05:43:06.609Z,3.75
2022-09-15T05:45:30.721Z,4.13
2022-09-15T05:47:57.020Z,4.80
2022-09-15T05:50:21.365Z,4.20
2022-09-15T05:52:46.432Z,3.45
2022-09-15T05:55:11.516Z,3.65
2022-09-15T05:57:37.210Z,3.25
2022-09-15T06:00:01.470Z,4.13
2022-09-15T06:02:36.140Z,17.48
2022-09-15T06:05:00.540Z,3.70
2022-09-15T06:07:25.038Z,2.88
2022-09-15T06:09:49.232Z,2.78
2022-09-15T06:12:13.581Z,3.38
2022-09-15T06:14:39.406Z,3.33
2022-09-15T06:17:03.797Z,4.15
2022-09-15T06:19:27.933Z,3.00
2022-09-15T06:21:52.374Z,3.70
2022-09-15T06:24:16.541Z,3.30
2022-09-15T06:26:40.661Z,3.78
2022-09-15T06:29:06.556Z,3.78
2022-09-15T06:31:34.248Z,3.58
2022-09-15T06:33:59.348Z,3.58
2022-09-15T06:36:26.168Z,3.10
2022-09-15T06:38:50.393Z,3.80
2022-09-15T06:41:15.124Z,3.55
2022-09-15T06:43:40.186Z,4.13
2022-09-15T06:46:06.229Z,3.60
2022-09-15T06:48:32.843Z,3.45
2022-09-15T06:50:57.123Z,3.50
2022-09-15T06:53:21.320Z,3.60
2022-09-15T06:55:45.406Z,3.67
2022-09-15T06:58:09.666Z,3.30
2022-09-15T07:00:34.146Z,3.35
2022-09-15T07:02:58.429Z,3.92
2022-09-15T07:05:25.602Z,3.72
2022-09-15T07:07:49.842Z,3.45
2022-09-15T07:10:13.953Z,3.85
2022-09-15T07:12:38.183Z,4.50
2022-09-15T07:15:02.991Z,3.88
2022-09-15T07:17:28.085Z,3.70
2022-09-15T07:19:52.277Z,4.38
2022-09-15T07:22:17.827Z,3.78
2022-09-15T07:24:41.957Z,3.60
2022-09-15T07:27:08.432Z,3.67
2022-09-15T07:29:37.107Z,4.25
2022-09-15T07:32:02.128Z,3.70
2022-09-15T07:34:26.570Z,3.22
2022-09-15T07:36:50.595Z,3.60
2022-09-15T07:39:16.470Z,3.47
2022-09-15T07:41:40.756Z,3.17
2022-09-15T07:44:08.205Z,3.63
2022-09-15T07:46:33.534Z,3.50
2022-09-15T07:48:57.966Z,2.53
2022-09-15T07:51:22.175Z,2.97
2022-09-15T07:53:48.044Z,2.83
2022-09-15T07:56:14.421Z,3.55
2022-09-15T07:58:38.488Z,3.28
2022-09-15T08:01:03.553Z,3.50
2022-09-15T08:03:27.865Z,4.15
2022-09-15T08:05:52.011Z,4.32
2022-09-15T08:08:16.032Z,4.80
2022-09-15T08:10:41.956Z,5.22
2022-09-15T08:13:07.860Z,5.28
2022-09-15T08:15:32.259Z,1.75
2022-09-15T08:17:56.553Z,2.35
2022-09-15T08:20:21.086Z,1.65
2022-09-15T08:22:46.652Z,2.20
2022-09-15T08:25:11.433Z,1.92
2022-09-15T08:27:35.617Z,1.67
2022-09-15T08:30:01.209Z,1.98
2022-09-15T08:32:27.861Z,1.90
2022-09-15T08:34:52.152Z,1.63
2022-09-15T08:37:16.291Z,2.20
2022-09-15T08:39:41.310Z,1.50
2022-09-15T08:42:06.285Z,1.95
2022-09-15T08:44:38.087Z,1.88
2022-09-15T08:47:07.742Z,2.05
2022-09-15T08:49:51.129Z,1.58
2022-09-15T08:52:20.734Z,1.90
2022-09-15T08:54:46.046Z,1.65
2022-09-15T08:57:15.662Z,1.60
2022-09-15T08:59:41.252Z,1.80
2022-09-15T09:02:40.803Z,2.33
2022-09-15T09:05:37.078Z,1.70
2022-09-15T09:08:31.899Z,1.70
2022-09-15T09:11:03.943Z,1.92
2022-09-15T09:13:36.680Z,1.75
2022-09-15T09:16:25.339Z,1.90
2022-09-15T09:19:17.664Z,1.65
2022-09-15T09:21:48.850Z,2.08
2022-09-15T09:24:17.841Z,2.35
2022-09-15T09:26:42.192Z,1.85
2022-09-15T09:29:14.154Z,1.75
2022-09-15T09:31:38.417Z,2.03
2022-09-15T09:34:14.495Z,2.22
2022-09-15T09:36:39.063Z,2.00
2022-09-15T09:39:05.409Z,2.88
2022-09-15T09:41:35.863Z,1.85
2022-09-15T09:44:00.198Z,2.10
2022-09-15T09:46:24.770Z,2.35
2022-09-15T09:48:53.914Z,2.25
2022-09-15T09:51:39.982Z,2.30
2022-09-15T09:54:20.755Z,2.17
2022-09-15T09:56:46.567Z,2.10
2022-09-15T09:59:32.708Z,2.00
2022-09-15T10:02:19.035Z,2.05
2022-09-15T10:04:44.583Z,2.22
2022-09-15T10:07:10.186Z,1.77
2022-09-15T10:09:36.228Z,2.88
2022-09-15T10:12:04.179Z,2.20
2022-09-15T10:14:31.641Z,2.05
2022-09-15T10:17:04.335Z,2.10
2022-09-15T10:19:32.467Z,1.95
2022-09-15T10:21:58.218Z,2.92
2022-09-15T10:24:32.711Z,2.58
2022-09-15T10:27:08.297Z,2.38
2022-09-15T10:29:39.321Z,2.50
2022-09-15T10:32:21.714Z,3.08
2022-09-15T10:34:49.119Z,2.53
2022-09-15T10:37:27.231Z,2.58
2022-09-15T10:39:55.891Z,2.42
2022-09-15T10:42:37.985Z,2.75
2022-09-15T10:45:15.724Z,2.30
2022-09-15T10:47:52.678Z,2.55
2022-09-15T10:50:48.181Z,2.42
2022-09-15T10:54:00.590Z,2.80
2022-09-15T10:56:47.738Z,2.40
2022-09-15T10:59:43.374Z,3.05
2022-09-15T11:02:52.409Z,2.80
2022-09-15T11:05:52.069Z,3.33
2022-09-15T11:09:11.441Z,2.20
2022-09-15T11:12:10.198Z,3.20
2022-09-15T11:15:11.600Z,3.65
2022-09-15T11:18:17.085Z,2.25
2022-09-15T11:21:21.688Z,2.60
2022-09-15T11:24:33.017Z,2.63
2022-09-15T11:27:22.803Z,3.40
2022-09-15T11:30:17.710Z,2.88
2022-09-15T11:33:06.234Z,3.15
2022-09-15T11:35:54.745Z,2.97
2022-09-15T11:38:48.045Z,3.00
2022-09-15T11:41:37.050Z,2.50
2022-09-15T11:44:26.484Z,2.78
2022-09-15T11:47:29.933Z,2.22
2022-09-15T11:50:21.658Z,3.30
2022-09-15T11:53:16.768Z,2.92
2022-09-15T11:56:10.933Z,3.25
2022-09-15T11:59:12.338Z,2.83
2022-09-15T12:02:03.597Z,3.08
2022-09-15T12:05:03.453Z,2.65
2022-09-15T12:07:51.633Z,2.90
2022-09-15T12:10:39.594Z,2.90
2022-09-15T12:13:25.645Z,3.38
2022-09-15T12:16:10.437Z,3.17
2022-09-15T12:18:59.196Z,2.95
2022-09-15T12:21:51.293Z,3.30
2022-09-15T12:24:44.040Z,2.78
2022-09-15T12:27:28.259Z,3.05
2022-09-15T12:30:40.572Z,3.22
2022-09-15T12:33:46.106Z,5.78
2022-09-15T12:36:51.410Z,3.85
2022-09-15T12:39:41.002Z,4.43
2022-09-15T12:42:27.859Z,4.57
2022-09-15T12:45:25.167Z,3.75
2022-09-15T12:48:18.096Z,3.28
2022-09-15T12:51:04.406Z,4.07
2022-09-15T12:53:54.344Z,3.22
2022-09-15T12:56:39.165Z,3.55
2022-09-15T12:59:26.620Z,3.53
2022-09-15T13:02:45.140Z,3.28
2022-09-15T13:06:05.717Z,3.83
2022-09-15T13:09:26.898Z,4.45
2022-09-15T13:12:13.771Z,2.85
2022-09-15T13:15:01.302Z,3.05
2022-09-15T13:17:47.750Z,2.78
2022-09-15T13:20:35.504Z,3.25
2022-09-15T13:23:24.286Z,2.78
2022-09-15T13:26:12.944Z,2.97
2022-09-15T13:28:59.129Z,2.42
2022-09-15T13:31:53.394Z,3.63
2022-09-15T13:35:07.054Z,2.63
2022-09-15T13:38:23.008Z,2.85
2022-09-15T13:41:40.194Z,3.25
2022-09-15T13:44:42.683Z,3.13
2022-09-15T13:47:38.401Z,2.65
2022-09-15T13:50:26.221Z,3.00
2022-09-15T13:53:43.249Z,2.88
2022-09-15T13:56:31.324Z,3.58
2022-09-15T13:59:20.065Z,2.40
2022-09-15T14:02:12.257Z,3.13
2022-09-15T14:04:56.587Z,2.17
2022-09-15T14:07:41.082Z,2.55
2022-09-15T14:10:28.028Z,2.72
2022-09-15T14:13:17.743Z,2.90
2022-09-15T14:16:03.538Z,2.67
2022-09-15T14:18:48.484Z,2.40
2022-09-15T14:21:34.844Z,2.60
2022-09-15T14:24:23.109Z,2.65
2022-09-15T14:27:11.134Z,2.55
2022-09-15T14:29:58.018Z,2.60
2022-09-15T14:32:52.170Z,1.75
2022-09-15T14:35:38.743Z,2.75
2022-09-15T14:38:24.846Z,2.60
2022-09-15T14:41:20.223Z,2.85
2022-09-15T14:45:52.999Z,3.00
2022-09-15T14:47:28.113Z,2.70
2022-09-15T14:50:16.559Z,2.53
2022-09-15T14:53:05.458Z,2.33
2022-09-15T14:55:54.019Z,2.70
2022-09-15T14:58:43.427Z,2.40
2022-09-15T15:01:34.755Z,2.90
2022-09-15T15:04:25.731Z,3.08
2022-09-15T15:07:20.148Z,2.72
2022-09-15T15:10:08.108Z,2.70
2022-09-15T15:12:55.069Z,2.22
2022-09-15T15:15:39.693Z,2.60
2022-09-15T15:18:37.472Z,2.65
2022-09-15T15:21:39.337Z,3.15
2022-09-15T15:24:24.855Z,3.33
2022-09-15T15:27:43.450Z,2.40
2022-09-15T15:30:44.972Z,2.75
2022-09-15T15:33:29.767Z,3.22
2022-09-15T15:36:13.912Z,2.30
2022-09-15T15:39:01.771Z,2.83
2022-09-15T15:41:45.937Z,2.65
2022-09-15T15:44:31.528Z,2.40
2022-09-15T15:47:26.076Z,2.72
2022-09-15T15:50:15.721Z,2.83
2022-09-15T15:53:02.682Z,3.50
2022-09-15T15:55:48.197Z,2.85
2022-09-15T15:58:32.119Z,4.38
2022-09-15T16:01:16.275Z,4.40
2022-09-15T16:04:00.258Z,4.35
2022-09-15T16:06:45.797Z,3.83
2022-09-15T16:09:29.837Z,4.38
2022-09-15T16:12:15.604Z,3.92
2022-09-15T16:14:59.775Z,4.03
2022-09-15T16:17:46.718Z,3.40
2022-09-15T16:20:31.104Z,4.93
2022-09-15T16:23:16.832Z,4.10
2022-09-15T16:26:03.808Z,4.75
2022-09-15T16:28:49.110Z,4.28
2022-09-15T16:31:34.522Z,4.05
2022-09-15T16:34:19.511Z,3.90
2022-09-15T16:37:03.376Z,3.95
2022-09-15T16:39:47.507Z,3.20
2022-09-15T16:42:31.523Z,3.60
2022-09-15T16:45:25.056Z,4.20
2022-09-15T16:48:09.081Z,3.25
2022-09-15T16:51:20.545Z,4.05
2022-09-15T16:53:57.145Z,3.85
2022-09-15T16:56:41.583Z,4.47
2022-09-15T16:59:25.932Z,3.60
2022-09-15T17:02:14.753Z,3.72
2022-09-15T17:04:58.727Z,4.47
2022-09-15T17:07:42.538Z,3.17
2022-09-15T17:10:26.447Z,4.43
2022-09-15T17:13:13.412Z,3.63
2022-09-15T17:15:57.588Z,4.10
2022-09-15T17:18:43.306Z,3.00
2022-09-15T17:21:27.513Z,3.60
2022-09-15T17:24:11.953Z,4.45
2022-09-15T17:26:55.885Z,3.35
2022-09-15T17:29:39.861Z,3.33
2022-09-15T17:32:23.918Z,3.20
2022-09-15T17:35:17.543Z,2.60
2022-09-15T17:38:02.049Z,3.20
2022-09-15T17:40:46.083Z,2.47
2022-09-15T17:43:32.291Z,2.70
2022-09-15T17:46:16.307Z,2.30
2022-09-15T17:49:00.445Z,2.53
2022-09-15T17:51:45.840Z,2.83
2022-09-15T17:54:31.700Z,2.67
2022-09-15T17:57:15.893Z,2.20
2022-09-15T18:00:00.096Z,2.95
2022-09-15T18:02:52.795Z,2.25
2022-09-15T18:05:37.978Z,3.05
2022-09-15T18:08:24.269Z,2.47
2022-09-15T18:11:08.952Z,2.80
2022-09-15T18:13:53.292Z,2.67
2022-09-15T18:16:37.905Z,2.50
2022-09-15T18:19:22.610Z,2.28
2022-09-15T18:22:07.557Z,2.97
2022-09-15T18:24:53.105Z,2.47
2022-09-15T18:27:37.343Z,2.72
2022-09-15T18:30:22.702Z,2.45
2022-09-15T18:33:06.898Z,3.08
2022-09-15T18:35:53.181Z,3.35
2022-09-15T18:38:38.833Z,2.90
2022-09-15T18:41:24.420Z,2.70
2022-09-15T18:44:08.697Z,2.70
2022-09-15T18:46:53.182Z,2.50
2022-09-15T18:49:37.147Z,3.05
2022-09-15T18:52:21.370Z,2.70
2022-09-15T18:55:06.498Z,3.55
2022-09-15T18:57:52.821Z,2.75
2022-09-15T19:00:37.027Z,3.03
2022-09-15T19:03:21.099Z,2.90
2022-09-15T19:06:05.580Z,3.08
2022-09-15T19:08:49.811Z,2.80
2022-09-15T19:11:33.964Z,2.70
2022-09-15T19:14:19.754Z,2.70
2022-09-15T19:17:04.069Z,3.05
2022-09-15T19:19:48.338Z,2.80
2022-09-15T19:22:32.517Z,3.38
2022-09-15T19:25:16.776Z,2.90
2022-09-15T19:28:00.912Z,3.15
2022-09-15T19:30:46.740Z,3.20
2022-09-15T19:33:30.960Z,2.75
2022-09-15T19:36:27.996Z,2.92
2022-09-15T19:39:14.981Z,2.35
2022-09-15T19:41:58.982Z,2.83
2022-09-15T19:44:43.451Z,2.80
2022-09-15T19:47:29.061Z,3.22
2022-09-15T19:50:13.296Z,2.92
2022-09-15T19:52:59.608Z,3.15
2022-09-15T19:55:43.986Z,2.50
2022-09-15T19:58:28.206Z,2.70
2022-09-15T20:01:12.309Z,2.72
2022-09-15T20:03:58.553Z,2.00
2022-09-15T20:06:43.253Z,2.85
2022-09-15T20:09:27.618Z,3.40
2022-09-15T20:12:11.734Z,2.40
2022-09-15T20:14:55.784Z,2.80
2022-09-15T20:17:42.505Z,2.50
2022-09-15T20:20:28.250Z,3.22
2022-09-15T20:23:12.286Z,3.88
2022-09-15T20:25:57.938Z,3.97
2022-09-15T20:28:42.563Z,4.13
2022-09-15T20:31:27.724Z,3.90
2022-09-15T20:34:11.757Z,3.70
2022-09-15T20:36:57.165Z,4.30
2022-09-15T20:39:41.219Z,4.10
2022-09-15T20:42:25.242Z,4.43
2022-09-15T20:45:10.493Z,4.18
2022-09-15T20:47:54.504Z,4.15
2022-09-15T20:50:38.383Z,4.28
2022-09-15T20:53:23.635Z,4.85
2022-09-15T20:56:07.867Z,4.47
2022-09-15T20:58:52.082Z,4.90
2022-09-15T21:01:38.072Z,4.80
2022-09-15T21:04:21.979Z,5.10
2022-09-15T21:07:06.094Z,4.70
2022-09-15T21:09:51.395Z,4.65
2022-09-15T21:12:35.265Z,4.25
2022-09-15T21:15:19.170Z,4.70
2022-09-15T21:18:03.330Z,4.38
2022-09-15T21:20:47.916Z,4.47
2022-09-15T21:23:34.217Z,4.50
2022-09-15T21:26:21.196Z,4.13
2022-09-15T21:29:05.227Z,4.20
2022-09-15T21:31:49.105Z,4.35
2022-09-15T21:34:33.045Z,4.03
2022-09-15T21:37:17.218Z,4.07
2022-09-15T21:40:01.245Z,4.15
2022-09-15T21:42:48.636Z,4.85
2022-09-15T21:45:32.594Z,4.68
2022-09-15T21:48:16.954Z,4.40
2022-09-15T21:51:01.303Z,3.95
2022-09-15T21:53:46.004Z,3.53
2022-09-15T21:56:31.476Z,4.53
2022-09-15T21:59:18.269Z,4.05
2022-09-15T22:02:02.290Z,3.33
2022-09-15T22:04:46.857Z,3.65
2022-09-15T22:07:30.887Z,3.70
2022-09-15T22:10:14.807Z,3.17
2022-09-15T22:12:59.087Z,4.18
2022-09-15T22:15:44.845Z,3.70
2022-09-15T22:18:28.825Z,3.45
2022-09-15T22:21:14.909Z,3.30
2022-09-15T22:24:00.149Z,3.67
2022-09-15T22:26:44.621Z,3.38
2022-09-15T22:29:28.562Z,3.60
2022-09-15T22:32:13.932Z,3.80
2022-09-15T22:34:58.157Z,3.22
2022-09-15T22:37:42.136Z,3.25
2022-09-15T22:40:26.169Z,3.58
2022-09-15T22:43:10.126Z,4.05
2022-09-15T22:45:54.134Z,3.28
2022-09-15T22:48:43.362Z,3.88
2022-09-15T22:51:27.656Z,3.67
2022-09-15T22:54:11.742Z,3.97
2022-09-15T22:56:55.666Z,3.70
2022-09-15T22:59:39.658Z,3.55
2022-09-15T23:02:23.667Z,3.60
2022-09-15T23:05:10.077Z,3.50
2022-09-15T23:07:53.989Z,3.70
2022-09-15T23:10:37.908Z,3.70
2022-09-15T23:13:21.822Z,3.80
2022-09-15T23:16:06.793Z,3.75
2022-09-15T23:18:51.177Z,3.38
2022-09-15T23:21:36.626Z,3.88
2022-09-15T23:24:20.825Z,4.20
2022-09-15T23:27:04.702Z,3.88
2022-09-15T23:29:48.770Z,3.70
2022-09-15T23:32:32.709Z,3.55
2022-09-15T23:35:16.936Z,4.07
2022-09-15T23:38:02.310Z,3.95
2022-09-15T23:40:47.108Z,4.20
2022-09-15T23:43:32.295Z,3.40
2022-09-15T23:46:16.299Z,3.45
2022-09-15T23:49:00.503Z,4.38
2022-09-15T23:51:44.580Z,4.68
2022-09-15T23:54:29.852Z,4.28
2022-09-15T23:57:13.752Z,4.72
2022-09-15T23:59:57.657Z,4.53
